METAR de aeropuertos de Murcia y cercanos

 

LEMI - Murcia/Corvera
Actualización: 09/07/2020 12:30
Few Clouds
Few Clouds
 Viento del ENE
Viento: ENE 19 km/h, Racha: 37 km/h
Temperatura: 29°C
Heat Index: 29°C
Rocío: 17°C
Humedad: 48%
Barómetro: 1016 hPa
Nubosidad: Few Clouds
Visibilidad: 10 km
Cloud details: Few Clouds 1219 m
2020/07/09 10:30 LEMI 091030Z 07010G20KT 010V110 9999 FEW040 29/17 Q1016
LERI - Murcia/Alcantarilla
Actualización: 09/07/2020 12:00
Few Clouds
Few Clouds
 Viento del NNE
Viento: NNE 9 km/h
Temperatura: 30°C
Rocío: 14°C
Humedad: 38%
Barómetro: 1016 hPa
Nubosidad: Few Clouds
Visibilidad: 10 km
Cloud details: Few Clouds 1219 m
2020/07/09 10:00 LERI 091000Z 03005KT 350V080 9999 FEW040 30/14 Q1016 NOSIG
LELC - Murcia/San Javier
Actualización: 09/07/2020 12:30
Few Clouds
Few Clouds
 Viento del ENE
Viento: ENE 22 km/h
Temperatura: 28°C
Heat Index: 30°C
Rocío: 21°C
Humedad: 66%
Barómetro: 1015 hPa
Nubosidad: Few Clouds
Visibilidad: 10 km
Cloud details: Few Clouds 671 m
2020/07/09 10:30 LELC 091030Z 06012KT 010V090 9999 FEW022 28/21 Q1015 NOSIG
 
LEAL - Alicante
Actualización: 09/07/2020 12:30
Few Clouds
Few Clouds
 Viento del E
Viento: E 20 km/h
Temperatura: 30°C
Heat Index: 31°C
Rocío: 19°C
Humedad: 52%
Barómetro: 1015 hPa
Nubosidad: Few Clouds
Visibilidad: 10 km
Cloud details: Few Clouds 610 m
2020/07/09 10:30 LEAL 091030Z 08011KT 9999 FEW020 30/19 Q1015 NOSIG
LEAB - Albacete
Actualización: 09/07/2020 12:00
Despejado
Despejado
 Viento del varies
Viento: varies 9 km/h
Temperatura: 29°C
Rocío: 13°C
Humedad: 37%
Barómetro: 1019 hPa
Resumen: Despejado
Visibilidad: greater than 10 km
2020/07/09 10:00 LEAB 091000Z VRB05KT CAVOK 29/13 Q1019 NOSIG
LEAM - Almería
Actualización: 09/07/2020 12:30
Few Clouds
Few Clouds
 Viento del SSO
Viento: SSO 13 km/h
Temperatura: 27°C
Heat Index: 29°C
Rocío: 21°C
Humedad: 70%
Barómetro: 1015 hPa
Nubosidad: Few Clouds
Visibilidad: 10 km
Cloud details: Few Clouds 1067 m
2020/07/09 10:30 LEAM 091030Z 20007KT 170V230 9999 FEW035 27/21 Q1015

La estación de MeteoMurcia.com, publica sus datos en los siguientes proyectos:

Weather Underground PWS IMURCIAP2 Meteoclimatic www.awekas.at

W3Counter
Web Analytics